Time;durP1;ratioP1;P1;durP2;ratioP2;P2;SDS_P1;SDS_P2;PMS_P1;PMS_P2;Temp;Humidity;BMP_temperature;BMP_pressure;BME280_temperature;BME280_humidity;BME280_pressure;Samples;Min_cycle;Max_cycle;Signal;HPM_P1;HPM_P2
2023/09/15 04:00:57;;;;;;;0.10;0.10;;;9.80;99.90;;;;;;5624608;23;20240;-71
2023/09/15 04:03:25;;;;;;;0.10;0.10;;;9.80;99.90;;;;;;4937928;28;20221;-71
2023/09/15 04:05:52;;;;;;;0.10;0.10;;;9.80;99.90;;;;;;4937028;29;20245;-71
2023/09/15 04:08:19;;;;;;;0.10;0.10;;;9.80;99.90;;;;;;4936798;29;20222;-71
2023/09/15 04:10:46;;;;;;;0.30;0.30;;;9.80;99.90;;;;;;4931398;29;20238;-71
2023/09/15 04:15:43;;;;;;;0.10;0.10;;;9.70;99.90;;;;;;4942147;29;20590;-70
2023/09/15 04:18:11;;;;;;;0.10;0.10;;;9.70;99.90;;;;;;4944313;29;20233;-70
2023/09/15 04:20:38;;;;;;;0.10;0.10;;;9.70;99.90;;;;;;4947200;29;20228;-71
2023/09/15 04:23:04;;;;;;;0.10;0.10;;;9.70;99.90;;;;;;4947512;28;20643;-71
2023/09/15 04:25:31;;;;;;;0.10;0.10;;;9.70;99.90;;;;;;4936424;28;20241;-71
2023/09/15 04:27:58;;;;;;;0.10;0.10;;;9.70;99.90;;;;;;4936117;29;20696;-71
2023/09/15 04:30:24;;;;;;;0.73;0.73;;;9.70;99.90;;;;;;4935687;29;20716;-71
2023/09/15 04:32:51;;;;;;;0.10;0.10;;;9.60;99.90;;;;;;4936260;29;20561;-71
2023/09/15 04:35:19;;;;;;;0.20;0.20;;;9.60;99.90;;;;;;4936019;29;20245;-71
2023/09/15 04:37:46;;;;;;;0.10;0.10;;;9.60;99.90;;;;;;4936051;29;20716;-71
2023/09/15 04:40:13;;;;;;;0.10;0.10;;;9.60;99.90;;;;;;4935780;29;20249;-71
2023/09/15 04:42:40;;;;;;;0.10;0.10;;;9.60;99.90;;;;;;4935904;29;20220;-70
2023/09/15 04:45:07;;;;;;;0.10;0.10;;;9.60;99.90;;;;;;4935898;29;20609;-71
2023/09/15 04:47:35;;;;;;;0.10;0.10;;;9.60;99.90;;;;;;4936279;29;20225;-71
2023/09/15 04:50:02;;;;;;;0.10;0.10;;;9.60;99.90;;;;;;4935937;29;20234;-71
2023/09/15 04:52:30;;;;;;;0.30;0.30;;;9.50;99.90;;;;;;4935913;29;20237;-71
2023/09/15 04:54:57;;;;;;;0.10;0.10;;;9.50;99.90;;;;;;4935838;29;20289;-71
2023/09/15 04:57:24;;;;;;;0.10;0.10;;;9.50;99.90;;;;;;4936165;29;20217;-71
2023/09/15 04:59:53;;;;;;;0.10;0.10;;;9.50;99.90;;;;;;4936669;29;20206;-71
2023/09/15 05:02:22;;;;;;;0.10;0.10;;;9.50;99.90;;;;;;4936461;29;20209;-71
2023/09/15 05:04:49;;;;;;;0.10;0.10;;;9.50;99.90;;;;;;4935566;29;20308;-71
2023/09/15 05:07:16;;;;;;;0.10;0.10;;;9.50;99.90;;;;;;4935560;29;20222;-71
2023/09/15 05:09:45;;;;;;;0.20;0.20;;;9.50;99.90;;;;;;4935297;29;20651;-71
2023/09/15 05:12:12;;;;;;;0.10;0.10;;;9.50;99.90;;;;;;4935767;29;20284;-71
2023/09/15 05:14:39;;;;;;;0.10;0.10;;;9.60;99.90;;;;;;4935461;29;20349;-71
2023/09/15 05:17:06;;;;;;;0.10;0.10;;;9.60;99.90;;;;;;4935870;29;20214;-71
2023/09/15 05:19:33;;;;;;;0.10;0.10;;;9.60;99.90;;;;;;4935456;29;20214;-71
2023/09/15 05:21:59;;;;;;;0.10;0.10;;;9.60;99.90;;;;;;4935064;29;20221;-71
2023/09/15 05:24:26;;;;;;;0.10;0.10;;;9.60;99.90;;;;;;4935094;29;20238;-71
2023/09/15 05:26:54;;;;;;;0.10;0.10;;;9.60;99.90;;;;;;4935539;29;20218;-71
2023/09/15 05:29:21;;;;;;;0.10;0.10;;;9.70;99.90;;;;;;4935076;29;20717;-71
2023/09/15 05:31:48;;;;;;;0.10;0.10;;;9.70;99.90;;;;;;4934779;29;20233;-71
2023/09/15 05:34:14;;;;;;;0.10;0.10;;;9.80;99.90;;;;;;4934869;29;20243;-70
2023/09/15 05:36:42;;;;;;;0.10;0.10;;;9.80;99.90;;;;;;4934968;29;20213;-71
2023/09/15 05:39:09;;;;;;;0.10;0.10;;;9.80;99.90;;;;;;4934885;29;20217;-71
2023/09/15 05:41:36;;;;;;;0.10;0.10;;;9.80;99.90;;;;;;4934430;29;20673;-70
2023/09/15 05:44:04;;;;;;;0.10;0.10;;;9.90;99.90;;;;;;4934797;29;20237;-69
2023/09/15 05:46:31;;;;;;;0.10;0.10;;;9.90;99.90;;;;;;4934632;29;20209;-70
2023/09/15 05:48:58;;;;;;;0.10;0.10;;;10.00;99.90;;;;;;4934880;29;20313;-70
2023/09/15 05:51:24;;;;;;;0.30;0.30;;;10.00;99.90;;;;;;4934300;29;20237;-70
2023/09/15 05:53:51;;;;;;;0.10;0.10;;;10.00;99.90;;;;;;4934789;29;20712;-70
2023/09/15 05:56:18;;;;;;;0.10;0.10;;;10.10;99.90;;;;;;4934989;29;20357;-70
2023/09/15 05:58:45;;;;;;;0.10;0.10;;;10.10;99.90;;;;;;4934596;29;20691;-71
2023/09/15 06:01:13;;;;;;;0.10;0.10;;;10.20;99.90;;;;;;4934878;29;20217;-71
2023/09/15 06:03:40;;;;;;;0.10;0.10;;;10.20;99.90;;;;;;4934757;29;20240;-71
2023/09/15 06:06:06;;;;;;;0.10;0.10;;;10.20;99.90;;;;;;4935136;29;20221;-71
2023/09/15 06:08:33;;;;;;;0.10;0.10;;;10.30;99.90;;;;;;4934434;29;20217;-71
2023/09/15 06:11:00;;;;;;;0.10;0.10;;;10.40;99.90;;;;;;4934421;29;20241;-71
2023/09/15 06:13:26;;;;;;;0.10;0.10;;;10.50;99.90;;;;;;4934333;29;20213;-70
2023/09/15 06:15:53;;;;;;;0.10;0.10;;;10.50;99.90;;;;;;4934749;29;20214;-70
2023/09/15 06:18:21;;;;;;;0.10;0.10;;;10.50;99.90;;;;;;4938364;29;20244;-70
2023/09/15 06:20:48;;;;;;;0.10;0.10;;;10.60;99.90;;;;;;4938322;29;20657;-70
2023/09/15 06:23:15;;;;;;;0.10;0.10;;;10.60;99.90;;;;;;4938574;29;20213;-70
2023/09/15 06:25:44;;;;;;;0.10;0.10;;;10.70;99.90;;;;;;4938565;29;20269;-70
2023/09/15 06:28:11;;;;;;;0.10;0.10;;;10.80;99.90;;;;;;4938586;29;20223;-71
2023/09/15 06:30:38;;;;;;;0.10;0.10;;;10.80;99.90;;;;;;4938108;29;20237;-71
2023/09/15 06:33:05;;;;;;;0.10;0.10;;;10.90;99.90;;;;;;4938200;29;20221;-71
2023/09/15 06:35:33;;;;;;;0.10;0.10;;;11.00;99.90;;;;;;4938083;29;20603;-71
2023/09/15 06:37:59;;;;;;;0.10;0.10;;;11.00;99.90;;;;;;4938364;29;20592;-71
2023/09/15 06:40:26;;;;;;;0.30;0.30;;;11.10;99.90;;;;;;4937883;29;20214;-71
2023/09/15 06:42:53;;;;;;;0.10;0.10;;;11.20;99.90;;;;;;4938164;29;20213;-71
2023/09/15 06:45:19;;;;;;;0.10;0.10;;;11.30;99.90;;;;;;4937869;29;20241;-71
2023/09/15 06:47:46;;;;;;;0.10;0.10;;;11.30;99.90;;;;;;4938044;29;20217;-71
2023/09/15 06:50:13;;;;;;;0.10;0.10;;;11.40;99.90;;;;;;4937871;29;20233;-71
2023/09/15 06:52:41;;;;;;;0.10;0.10;;;11.50;99.90;;;;;;4937842;29;20225;-71
2023/09/15 06:55:08;;;;;;;0.10;0.10;;;11.50;99.90;;;;;;4937969;29;20260;-71
2023/09/15 06:57:35;;;;;;;0.20;0.20;;;11.60;99.90;;;;;;4937778;29;20241;-71
2023/09/15 07:00:03;;;;;;;0.10;0.10;;;11.70;99.90;;;;;;4937503;29;20236;-71
2023/09/15 07:02:30;;;;;;;0.10;0.10;;;11.80;99.90;;;;;;4929866;29;20246;-71
2023/09/15 07:04:57;;;;;;;0.10;0.10;;;11.90;99.90;;;;;;4937873;29;20481;-71
2023/09/15 07:07:23;;;;;;;0.10;0.10;;;11.90;99.90;;;;;;4937480;29;20474;-71
2023/09/15 07:09:51;;;;;;;0.10;0.10;;;11.90;99.90;;;;;;4937320;29;20237;-71
2023/09/15 07:12:18;;;;;;;0.20;0.20;;;12.00;99.90;;;;;;4937355;29;20238;-71
2023/09/15 07:14:45;;;;;;;0.10;0.10;;;12.10;99.90;;;;;;4929275;29;20241;-70
2023/09/15 07:17:11;;;;;;;0.10;0.10;;;12.20;99.90;;;;;;4937258;29;20461;-70
2023/09/15 07:19:38;;;;;;;0.10;0.10;;;12.30;99.90;;;;;;4937580;29;20476;-71
2023/09/15 07:22:05;;;;;;;0.10;0.10;;;12.40;99.90;;;;;;4937194;29;20469;-71
2023/09/15 07:24:32;;;;;;;0.10;0.10;;;12.50;99.90;;;;;;4937124;29;20512;-71
2023/09/15 07:27:01;;;;;;;0.10;0.10;;;12.60;99.90;;;;;;4936834;29;20496;-71
2023/09/15 07:29:28;;;;;;;0.10;0.10;;;12.60;99.90;;;;;;4936881;29;20528;-70
2023/09/15 07:31:57;;;;;;;0.10;0.10;;;12.70;99.90;;;;;;4937105;29;20500;-71
2023/09/15 07:34:24;;;;;;;0.10;0.10;;;12.80;99.90;;;;;;4937057;29;20583;-70
2023/09/15 07:36:51;;;;;;;0.10;0.10;;;12.90;99.90;;;;;;4937148;29;20489;-71
2023/09/15 07:39:18;;;;;;;0.10;0.10;;;13.10;99.90;;;;;;4936808;29;20925;-70
2023/09/15 07:41:45;;;;;;;0.10;0.10;;;13.30;99.90;;;;;;4936692;29;20560;-71
2023/09/15 07:44:14;;;;;;;0.10;0.10;;;13.40;99.90;;;;;;4937275;29;20556;-71
2023/09/15 07:46:41;;;;;;;0.10;0.10;;;13.50;99.90;;;;;;4929482;29;20476;-71
2023/09/15 07:49:08;;;;;;;0.10;0.10;;;13.50;99.90;;;;;;4937180;29;20461;-71
2023/09/15 07:51:35;;;;;;;0.10;0.10;;;13.60;99.90;;;;;;4936612;29;20497;-71
2023/09/15 07:54:02;;;;;;;0.10;0.10;;;13.90;99.90;;;;;;4936949;29;20968;-71
2023/09/15 07:56:29;;;;;;;0.10;0.10;;;13.90;99.90;;;;;;4936741;29;20473;-71
2023/09/15 07:58:56;;;;;;;0.10;0.10;;;14.00;99.90;;;;;;4931541;29;20478;-72
2023/09/15 08:01:24;;;;;;;0.10;0.10;;;14.20;99.90;;;;;;4934529;29;20569;-72
2023/09/15 08:03:50;;;;;;;0.10;0.10;;;14.50;99.90;;;;;;4936580;29;20493;-71
2023/09/15 08:06:17;;;;;;;0.10;0.10;;;14.50;99.90;;;;;;4936644;29;20472;-71
2023/09/15 08:08:44;;;;;;;0.10;0.10;;;14.70;99.90;;;;;;4936660;29;20860;-72
2023/09/15 08:11:10;;;;;;;0.10;0.10;;;14.80;99.90;;;;;;4936263;29;20497;-72
2023/09/15 08:13:37;;;;;;;0.10;0.10;;;15.00;99.90;;;;;;4928657;29;20492;-72
2023/09/15 08:16:04;;;;;;;0.10;0.10;;;15.00;99.90;;;;;;4936514;29;20991;-72
2023/09/15 08:18:32;;;;;;;0.10;0.10;;;15.10;99.90;;;;;;4936522;29;20470;-72
2023/09/15 08:20:58;;;;;;;0.20;0.20;;;15.30;99.90;;;;;;4930442;29;20527;-71
2023/09/15 08:23:25;;;;;;;0.10;0.10;;;15.60;99.90;;;;;;4934174;29;20845;-71
2023/09/15 08:25:52;;;;;;;0.10;0.10;;;15.70;99.90;;;;;;4936465;29;20472;-71
2023/09/15 08:28:18;;;;;;;0.10;0.10;;;15.80;99.90;;;;;;4936545;29;20481;-71
2023/09/15 08:30:46;;;;;;;0.10;0.10;;;15.90;99.90;;;;;;4936047;29;20493;-71
2023/09/15 08:33:13;;;;;;;0.10;0.10;;;16.00;99.90;;;;;;4928499;29;20468;-71
2023/09/15 08:35:41;;;;;;;0.10;0.10;;;16.20;99.90;;;;;;4936058;29;20473;-70
2023/09/15 08:38:08;;;;;;;0.10;0.10;;;16.40;99.90;;;;;;4935921;29;20964;-70
2023/09/15 08:40:40;;;;;;;0.10;0.10;;;16.60;99.90;;;;;;4935086;29;20558;-70
2023/09/15 08:43:06;;;;;;;0.10;0.10;;;16.80;99.90;;;;;;4936140;29;20778;-70
2023/09/15 08:45:34;;;;;;;0.10;0.10;;;16.70;99.90;;;;;;4935639;29;20485;-70
2023/09/15 08:48:04;;;;;;;0.10;0.10;;;16.70;99.90;;;;;;4935733;29;20469;-70
2023/09/15 08:50:31;;;;;;;0.10;0.10;;;16.80;99.90;;;;;;4935079;29;20467;-70
2023/09/15 08:53:01;;;;;;;0.10;0.10;;;16.90;99.90;;;;;;4935673;29;20521;-70
2023/09/15 08:55:28;;;;;;;0.10;0.10;;;16.90;99.90;;;;;;4936214;29;20487;-71
2023/09/15 08:57:56;;;;;;;0.10;0.10;;;17.10;99.90;;;;;;4936086;29;20574;-71
2023/09/15 09:00:23;;;;;;;0.10;0.10;;;17.20;99.90;;;;;;4934445;29;20467;-71
2023/09/15 09:02:50;;;;;;;0.10;0.10;;;17.30;99.90;;;;;;4929411;29;20476;-71
2023/09/15 09:05:17;;;;;;;0.10;0.10;;;17.50;99.90;;;;;;4935828;29;20499;-70
2023/09/15 09:07:45;;;;;;;0.10;0.10;;;17.50;99.90;;;;;;4936814;29;20468;-71
2023/09/15 09:10:13;;;;;;;0.10;0.10;;;17.60;99.90;;;;;;4936281;29;20467;-71
2023/09/15 09:12:40;;;;;;;0.10;0.10;;;17.70;99.90;;;;;;4936243;29;20508;-71
2023/09/15 09:15:10;;;;;;;0.10;0.10;;;17.80;99.90;;;;;;4935879;29;20871;-71
2023/09/15 09:17:39;;;;;;;0.30;0.30;;;17.80;99.90;;;;;;4935953;29;20625;-70
2023/09/15 09:20:08;;;;;;;0.10;0.10;;;17.90;99.90;;;;;;4936009;29;20475;-70
2023/09/15 09:22:35;;;;;;;0.10;0.10;;;18.00;99.90;;;;;;4935807;29;20476;-70
2023/09/15 09:25:03;;;;;;;0.20;0.20;;;18.10;99.90;;;;;;4935527;29;20522;-70
2023/09/15 09:27:33;;;;;;;0.10;0.10;;;18.20;99.90;;;;;;4935277;29;20497;-70
2023/09/15 09:30:00;;;;;;;0.10;0.10;;;18.30;99.90;;;;;;4935198;29;20472;-70
2023/09/15 09:32:27;;;;;;;0.10;0.10;;;18.40;99.90;;;;;;4934843;29;20500;-70
2023/09/15 09:34:54;;;;;;;0.10;0.10;;;18.40;99.90;;;;;;4935114;29;20497;-70
2023/09/15 09:37:25;;;;;;;0.10;0.10;;;18.40;99.90;;;;;;4935040;29;20480;-70
2023/09/15 09:39:52;;;;;;;0.10;0.10;;;18.50;99.90;;;;;;4934784;29;20468;-70
2023/09/15 09:42:19;;;;;;;0.10;0.10;;;18.60;99.90;;;;;;4934963;29;20468;-70
2023/09/15 09:44:47;;;;;;;0.10;0.10;;;18.60;99.90;;;;;;4934623;29;20520;-70
2023/09/15 09:47:14;;;;;;;0.10;0.10;;;18.70;99.90;;;;;;4934803;29;20480;-70
2023/09/15 09:49:41;;;;;;;0.10;0.10;;;18.70;99.90;;;;;;4934844;29;20472;-69
2023/09/15 09:52:08;;;;;;;0.10;0.10;;;18.80;99.90;;;;;;4934570;29;20501;-69
2023/09/15 09:54:35;;;;;;;0.10;0.10;;;18.80;99.90;;;;;;4932145;29;20501;-69
2023/09/15 09:57:02;;;;;;;0.10;0.10;;;18.90;99.90;;;;;;4929631;29;20824;-69
2023/09/15 09:59:29;;;;;;;0.10;0.10;;;18.90;99.90;;;;;;4934849;29;20472;-69
2023/09/15 10:01:57;;;;;;;0.10;0.10;;;19.10;99.90;;;;;;4934836;29;20469;-70
2023/09/15 10:04:24;;;;;;;0.10;0.10;;;19.10;99.90;;;;;;4933490;29;20999;-69
2023/09/15 10:06:51;;;;;;;0.20;0.20;;;19.10;99.90;;;;;;4928083;29;20473;-69
2023/09/15 10:09:18;;;;;;;0.10;0.10;;;19.20;99.90;;;;;;4934218;29;20469;-71
2023/09/15 10:11:46;;;;;;;0.10;0.10;;;19.30;99.90;;;;;;4934096;29;20493;-70
2023/09/15 10:14:13;;;;;;;0.10;0.10;;;19.30;99.90;;;;;;4957612;23;20500;-71
2023/09/15 10:16:41;;;;;;;0.10;0.10;;;19.30;99.90;;;;;;4934477;29;20480;-71
2023/09/15 10:19:10;;;;;;;0.10;0.10;;;19.30;99.90;;;;;;4934841;29;20841;-72
2023/09/15 10:21:38;;;;;;;0.10;0.10;;;19.40;99.90;;;;;;4934517;29;20556;-71
2023/09/15 10:24:09;;;;;;;0.10;0.10;;;19.40;99.90;;;;;;4934846;29;20564;-72
2023/09/15 10:26:39;;;;;;;0.10;0.10;;;19.60;99.90;;;;;;4916369;29;20471;-72
2023/09/15 10:29:06;;;;;;;0.10;0.10;;;19.70;99.90;;;;;;4916041;29;20890;-72
2023/09/15 10:31:34;;;;;;;0.10;0.10;;;19.60;99.90;;;;;;4915419;29;20497;-72
2023/09/15 10:34:02;;;;;;;0.10;0.10;;;19.60;99.90;;;;;;4915532;29;20470;-71
2023/09/15 10:36:30;;;;;;;0.10;0.10;;;19.70;99.90;;;;;;4915433;29;20506;-72
2023/09/15 10:39:10;;;;;;;0.10;0.10;;;19.70;99.90;;;;;;4915439;29;20852;-72
2023/09/15 10:41:37;;;;;;;0.10;0.10;;;19.60;99.90;;;;;;4915121;29;20471;-70
2023/09/15 10:44:04;;;;;;;0.10;0.10;;;19.60;99.90;;;;;;4915404;29;20471;-70
2023/09/15 10:46:36;;;;;;;0.10;0.10;;;19.70;99.90;;;;;;4915308;29;20471;-70
2023/09/15 10:49:14;;;;;;;0.10;0.10;;;19.90;99.90;;;;;;4915078;29;20467;-70
2023/09/15 10:51:53;;;;;;;0.10;0.10;;;19.90;99.90;;;;;;4914821;29;20499;-70
2023/09/15 10:54:20;;;;;;;0.10;0.10;;;20.00;99.90;;;;;;4914933;29;20471;-70
2023/09/15 10:56:47;;;;;;;0.10;0.10;;;20.10;99.90;;;;;;4915125;29;20474;-70
2023/09/15 10:59:16;;;;;;;0.10;0.10;;;20.10;99.90;;;;;;4915196;29;20504;-70
2023/09/15 11:01:44;;;;;;;0.10;0.10;;;20.20;99.90;;;;;;4914726;29;20465;-72
2023/09/15 11:04:13;;;;;;;0.10;0.10;;;20.20;99.90;;;;;;4918716;29;20529;-70
2023/09/15 11:06:40;;;;;;;0.10;0.10;;;20.20;99.90;;;;;;4918653;29;20495;-71
2023/09/15 11:09:10;;;;;;;0.10;0.10;;;20.20;99.90;;;;;;4918400;29;20473;-71
2023/09/15 11:11:37;;;;;;;0.10;0.10;;;20.10;99.90;;;;;;4918540;29;20494;-71
2023/09/15 11:14:05;;;;;;;0.10;0.10;;;20.10;99.90;;;;;;4918573;29;20471;-71
2023/09/15 11:16:31;;;;;;;0.10;0.10;;;20.20;99.90;;;;;;4917996;29;20577;-72
2023/09/15 11:19:02;;;;;;;0.10;0.10;;;20.30;99.90;;;;;;4918497;29;20467;-71
2023/09/15 11:21:30;;;;;;;0.10;0.10;;;20.30;99.90;;;;;;4918117;29;20569;-71
2023/09/15 11:23:57;;;;;;;0.10;0.10;;;20.30;99.90;;;;;;4918344;29;20471;-71
2023/09/15 11:26:25;;;;;;;0.10;0.10;;;20.30;99.90;;;;;;4918301;29;20487;-71
2023/09/15 11:28:53;;;;;;;0.23;0.23;;;20.40;99.90;;;;;;4917942;29;20516;-71
2023/09/15 11:31:20;;;;;;;0.10;0.10;;;20.40;99.90;;;;;;4918226;29;20473;-71
2023/09/15 11:33:46;;;;;;;0.10;0.10;;;20.40;99.90;;;;;;4918421;29;20486;-71
2023/09/15 11:36:14;;;;;;;0.10;0.10;;;20.40;99.90;;;;;;4918208;29;20488;-71
2023/09/15 11:38:40;;;;;;;0.50;0.50;;;20.50;99.90;;;;;;4918663;29;20479;-71
2023/09/15 11:41:07;;;;;;;0.10;0.10;;;20.50;99.90;;;;;;4917982;29;20483;-71
2023/09/15 11:43:38;;;;;;;0.10;0.10;;;20.60;99.90;;;;;;4917984;29;20465;-71
2023/09/15 11:46:07;;;;;;;0.10;0.10;;;20.60;99.90;;;;;;4917876;29;20488;-71
2023/09/15 11:48:38;;;;;;;0.10;0.10;;;20.70;99.90;;;;;;4917870;29;20470;-71
2023/09/15 11:51:06;;;;;;;0.10;0.10;;;20.70;99.90;;;;;;4917899;29;20557;-71
2023/09/15 11:53:36;;;;;;;0.10;0.10;;;20.70;99.90;;;;;;4917577;29;20499;-71
2023/09/15 11:56:04;;;;;;;0.10;0.10;;;20.70;99.90;;;;;;4917606;29;20520;-72
2023/09/15 11:58:32;;;;;;;0.10;0.10;;;20.80;99.90;;;;;;4917905;29;20524;-71
2023/09/15 12:01:01;;;;;;;0.10;0.10;;;20.80;99.90;;;;;;4917393;29;20477;-71
2023/09/15 12:03:31;;;;;;;0.10;0.10;;;20.80;99.90;;;;;;4917416;29;20464;-71
2023/09/15 12:05:58;;;;;;;0.10;0.10;;;20.80;99.90;;;;;;4917514;29;21099;-72
2023/09/15 12:08:25;;;;;;;0.10;0.10;;;20.80;99.90;;;;;;4917421;29;20472;-71
2023/09/15 12:10:51;;;;;;;0.10;0.10;;;20.80;99.90;;;;;;4917736;29;20473;-71
2023/09/15 12:13:18;;;;;;;0.10;0.10;;;20.90;99.90;;;;;;4916897;29;21048;-71
2023/09/15 12:15:47;;;;;;;0.10;0.10;;;20.90;99.90;;;;;;4916573;29;20496;-71
2023/09/15 12:18:15;;;;;;;0.10;0.10;;;21.00;99.90;;;;;;4917253;29;21011;-72
2023/09/15 12:20:47;;;;;;;0.10;0.10;;;21.00;99.90;;;;;;4916894;29;20956;-71
2023/09/15 12:23:15;;;;;;;0.20;0.20;;;20.90;99.90;;;;;;4917183;29;20468;-71
2023/09/15 12:25:42;;;;;;;0.10;0.10;;;20.90;99.90;;;;;;4917463;29;20533;-71
2023/09/15 12:28:09;;;;;;;0.10;0.10;;;21.00;99.90;;;;;;4917451;29;20505;-71
2023/09/15 12:30:35;;;;;;;0.10;0.10;;;21.00;99.90;;;;;;4917124;29;20477;-71
2023/09/15 12:33:05;;;;;;;0.10;0.10;;;21.00;99.90;;;;;;4917009;29;20924;-72
2023/09/15 12:35:38;;;;;;;0.10;0.10;;;21.00;99.90;;;;;;4916822;29;20484;-71
2023/09/15 12:38:05;;;;;;;0.20;0.20;;;21.00;99.90;;;;;;4917175;29;20477;-71
2023/09/15 12:40:34;;;;;;;0.10;0.10;;;21.10;99.90;;;;;;4917313;29;20469;-71
2023/09/15 12:43:02;;;;;;;0.10;0.10;;;21.20;99.90;;;;;;4918235;29;20475;-72
2023/09/15 12:45:28;;;;;;;0.10;0.10;;;21.20;99.90;;;;;;4917757;29;20519;-72
2023/09/15 12:47:55;;;;;;;0.10;0.10;;;21.10;99.90;;;;;;4919386;29;20480;-72
2023/09/15 12:50:22;;;;;;;0.10;0.10;;;21.20;99.90;;;;;;4920746;29;20473;-72
2023/09/15 12:52:50;;;;;;;0.10;0.10;;;21.20;99.90;;;;;;4917462;29;20497;-72
2023/09/15 12:55:18;;;;;;;0.10;0.10;;;21.20;99.90;;;;;;4916659;29;20537;-72
2023/09/15 12:57:45;;;;;;;0.10;0.10;;;21.20;99.90;;;;;;4916612;29;20474;-72
2023/09/15 13:00:12;;;;;;;0.10;0.10;;;21.10;99.90;;;;;;4916341;29;20479;-72
2023/09/15 13:02:39;;;;;;;0.10;0.10;;;21.20;99.90;;;;;;4916278;29;20468;-72
2023/09/15 13:05:07;;;;;;;0.10;0.10;;;21.20;99.90;;;;;;4916583;29;20553;-72
2023/09/15 13:07:36;;;;;;;0.10;0.10;;;21.40;99.90;;;;;;4916300;29;20524;-72
2023/09/15 13:10:05;;;;;;;0.10;0.10;;;21.40;99.90;;;;;;4916289;29;20470;-72
2023/09/15 13:12:32;;;;;;;0.10;0.10;;;21.30;99.90;;;;;;4916193;29;20492;-72
2023/09/15 13:14:58;;;;;;;0.20;0.20;;;21.30;99.90;;;;;;4915941;29;20505;-71
2023/09/15 13:17:25;;;;;;;0.10;0.10;;;21.30;99.90;;;;;;4916042;29;20971;-72
2023/09/15 13:19:52;;;;;;;0.10;0.10;;;21.30;99.90;;;;;;4916145;29;20473;-71
2023/09/15 13:22:18;;;;;;;0.23;0.23;;;21.20;99.90;;;;;;4916109;29;20472;-71
2023/09/15 13:24:45;;;;;;;0.10;0.10;;;21.20;99.90;;;;;;4915788;29;20595;-72
2023/09/15 13:27:13;;;;;;;0.20;0.20;;;21.20;99.90;;;;;;4916060;29;20473;-71
2023/09/15 13:29:40;;;;;;;0.10;0.10;;;21.30;99.90;;;;;;4915637;29;20477;-70
2023/09/15 13:32:07;;;;;;;0.37;0.37;;;21.40;99.90;;;;;;4916026;29;20477;-72
2023/09/15 13:34:33;;;;;;;0.10;0.10;;;21.30;99.90;;;;;;4915946;29;20494;-71
2023/09/15 13:37:00;;;;;;;0.30;0.30;;;21.30;99.90;;;;;;4915823;29;20496;-71
2023/09/15 13:39:27;;;;;;;0.10;0.10;;;21.30;99.90;;;;;;4915728;29;20912;-72
2023/09/15 13:41:53;;;;;;;0.10;0.10;;;21.30;99.90;;;;;;4915628;29;20901;-72
2023/09/15 13:44:21;;;;;;;0.10;0.10;;;21.30;99.90;;;;;;4916090;29;20462;-72
2023/09/15 13:46:48;;;;;;;0.10;0.10;;;21.30;99.90;;;;;;4916481;29;20480;-71
2023/09/15 13:49:15;;;;;;;0.23;0.23;;;21.40;99.90;;;;;;4915610;29;20979;-71
2023/09/15 13:51:42;;;;;;;0.10;0.10;;;21.30;99.90;;;;;;4915635;29;20469;-71
2023/09/15 13:54:09;;;;;;;0.10;0.10;;;21.30;99.90;;;;;;4915463;29;20497;-71
2023/09/15 13:56:35;;;;;;;0.10;0.10;;;21.30;99.90;;;;;;4915592;29;20853;-71
2023/09/15 13:59:03;;;;;;;0.10;0.10;;;21.30;99.90;;;;;;4915437;29;20470;-71
2023/09/15 14:01:31;;;;;;;0.20;0.20;;;21.30;99.90;;;;;;4915637;29;20472;-71
2023/09/15 14:03:58;;;;;;;0.10;0.10;;;21.30;99.90;;;;;;4915682;29;20476;-72
2023/09/15 14:06:25;;;;;;;0.10;0.10;;;21.30;99.90;;;;;;4915331;29;20526;-71
2023/09/15 14:08:52;;;;;;;1.03;0.93;;;21.30;99.90;;;;;;4915479;29;20481;-71
2023/09/15 14:11:18;;;;;;;0.10;0.10;;;21.40;99.90;;;;;;4914888;29;20894;-70
2023/09/15 14:13:45;;;;;;;0.10;0.10;;;21.30;99.90;;;;;;4915562;29;20507;-71
2023/09/15 14:16:12;;;;;;;0.10;0.10;;;21.30;99.90;;;;;;4914977;29;20497;-71
2023/09/15 14:18:40;;;;;;;0.10;0.10;;;21.30;99.90;;;;;;4915139;29;21088;-71
2023/09/15 14:21:07;;;;;;;0.97;0.97;;;21.30;99.90;;;;;;4915126;29;20977;-71
2023/09/15 14:23:33;;;;;;;0.10;0.10;;;21.40;99.90;;;;;;4915020;29;20957;-71
2023/09/15 14:26:02;;;;;;;0.10;0.10;;;21.40;99.90;;;;;;4915030;29;20823;-71
2023/09/15 14:28:28;;;;;;;0.10;0.10;;;21.40;99.90;;;;;;4915290;29;20507;-71
2023/09/15 14:30:55;;;;;;;0.10;0.10;;;21.40;99.90;;;;;;4914753;29;20825;-71
2023/09/15 14:33:22;;;;;;;0.20;0.20;;;21.40;99.90;;;;;;4915024;29;20864;-71
2023/09/15 14:35:50;;;;;;;0.10;0.10;;;21.40;99.90;;;;;;4915020;29;20494;-71
2023/09/15 14:38:17;;;;;;;0.10;0.10;;;21.40;99.90;;;;;;4917382;29;20474;-71
2023/09/15 14:40:43;;;;;;;0.10;0.10;;;21.40;99.90;;;;;;4918584;29;20476;-71
2023/09/15 14:43:10;;;;;;;0.10;0.10;;;21.40;99.90;;;;;;4918880;29;20492;-72
2023/09/15 14:45:37;;;;;;;0.40;0.40;;;21.40;99.90;;;;;;4918651;29;20500;-72
2023/09/15 14:48:04;;;;;;;0.10;0.10;;;21.40;99.90;;;;;;4918834;29;20466;-72
2023/09/15 14:50:32;;;;;;;0.10;0.10;;;21.40;99.90;;;;;;4918390;29;20477;-71
2023/09/15 14:53:00;;;;;;;0.10;0.10;;;21.40;99.90;;;;;;4918594;29;20529;-72
2023/09/15 14:55:28;;;;;;;0.10;0.10;;;21.40;99.90;;;;;;4919198;29;20499;-71
2023/09/15 14:57:54;;;;;;;0.10;0.10;;;21.30;99.90;;;;;;4919293;29;20888;-71
2023/09/15 15:00:21;;;;;;;0.10;0.10;;;21.30;99.90;;;;;;4918793;29;20473;-71
2023/09/15 15:02:48;;;;;;;0.10;0.10;;;21.40;99.90;;;;;;4919110;29;20464;-71
2023/09/15 15:05:15;;;;;;;0.10;0.10;;;21.40;99.90;;;;;;4918838;29;20556;-71
2023/09/15 15:07:42;;;;;;;0.10;0.10;;;21.30;99.90;;;;;;4918789;29;20486;-71
2023/09/15 15:10:11;;;;;;;0.10;0.10;;;21.30;99.90;;;;;;4918123;29;20961;-71
2023/09/15 15:12:38;;;;;;;0.10;0.10;;;21.30;99.90;;;;;;4918511;29;20469;-71
2023/09/15 15:15:06;;;;;;;0.20;0.20;;;21.30;99.90;;;;;;4918231;29;20524;-71
2023/09/15 15:17:33;;;;;;;0.10;0.10;;;21.30;99.90;;;;;;4918336;29;20472;-71
2023/09/15 15:20:00;;;;;;;0.10;0.10;;;21.30;99.90;;;;;;4918207;29;20476;-70
2023/09/15 15:22:26;;;;;;;0.10;0.10;;;21.30;99.90;;;;;;4917987;29;20477;-70
2023/09/15 15:24:53;;;;;;;0.10;0.10;;;21.20;99.90;;;;;;4918095;29;20482;-70
2023/09/15 15:27:21;;;;;;;0.10;0.10;;;21.20;99.90;;;;;;4918176;29;20477;-70
2023/09/15 15:29:48;;;;;;;0.10;0.10;;;21.20;99.90;;;;;;4917816;29;20473;-70
2023/09/15 15:32:15;;;;;;;0.50;0.50;;;21.20;99.90;;;;;;4917838;29;20477;-70
2023/09/15 15:34:41;;;;;;;0.10;0.10;;;21.20;99.90;;;;;;4917683;29;20936;-70
2023/09/15 15:37:08;;;;;;;0.10;0.10;;;21.20;99.90;;;;;;4918038;29;20476;-70
2023/09/15 15:39:35;;;;;;;0.20;0.20;;;21.20;99.90;;;;;;4917729;29;20466;-70
2023/09/15 15:42:01;;;;;;;0.10;0.10;;;21.10;99.90;;;;;;4917629;29;20480;-70
2023/09/15 15:44:29;;;;;;;0.10;0.10;;;21.10;99.90;;;;;;4917499;29;20497;-70
2023/09/15 15:46:56;;;;;;;0.20;0.20;;;21.20;99.90;;;;;;4917663;29;20480;-70
2023/09/15 15:49:23;;;;;;;0.10;0.10;;;21.10;99.90;;;;;;4917642;29;20516;-71
2023/09/15 15:51:49;;;;;;;0.10;0.10;;;21.10;99.90;;;;;;4918624;29;20471;-71
2023/09/15 15:54:16;;;;;;;0.10;0.10;;;21.10;99.90;;;;;;4919809;29;20524;-71
2023/09/15 15:56:44;;;;;;;0.10;0.10;;;21.10;99.90;;;;;;4920105;29;20473;-71
2023/09/15 15:59:10;;;;;;;0.10;0.10;;;21.00;99.90;;;;;;4918323;29;20495;-71
2023/09/15 16:01:38;;;;;;;0.10;0.10;;;21.10;99.90;;;;;;4917764;29;20991;-71
2023/09/15 16:04:05;;;;;;;0.10;0.10;;;21.00;99.90;;;;;;4917703;29;20477;-71
2023/09/15 16:06:32;;;;;;;0.10;0.10;;;21.00;99.90;;;;;;4917461;29;20491;-71
2023/09/15 16:08:58;;;;;;;0.10;0.10;;;21.00;99.90;;;;;;4917264;29;20501;-71
2023/09/15 16:11:26;;;;;;;0.10;0.10;;;21.00;99.90;;;;;;4917213;29;20473;-71
2023/09/15 16:13:53;;;;;;;0.10;0.10;;;20.90;99.90;;;;;;4917053;29;20586;-71
2023/09/15 16:16:20;;;;;;;0.10;0.10;;;20.80;99.90;;;;;;4962821;23;20503;-73
2023/09/15 16:18:48;;;;;;;0.10;0.10;;;20.80;99.90;;;;;;4955476;28;20462;-73
2023/09/15 16:21:14;;;;;;;0.10;0.10;;;20.70;99.90;;;;;;4955262;28;20469;-72
2023/09/15 16:23:41;;;;;;;0.20;0.20;;;20.70;99.90;;;;;;4955375;28;20465;-73
2023/09/15 16:26:08;;;;;;;0.10;0.10;;;20.70;99.90;;;;;;4948550;28;20492;-73
2023/09/15 16:28:35;;;;;;;0.10;0.10;;;20.70;99.90;;;;;;4938687;29;20472;-72
2023/09/15 16:31:02;;;;;;;0.10;0.10;;;20.60;99.90;;;;;;4947095;28;20462;-73
2023/09/15 16:33:29;;;;;;;0.10;0.10;;;20.50;99.90;;;;;;4945523;28;20548;-72
2023/09/15 16:36:02;;;;;;;0.10;0.10;;;20.50;99.90;;;;;;4944323;29;20495;-72
2023/09/15 16:38:29;;;;;;;0.10;0.10;;;20.50;99.90;;;;;;4945636;29;20500;-72
2023/09/15 16:40:59;;;;;;;0.10;0.10;;;20.40;99.90;;;;;;4947180;28;20471;-73
2023/09/15 16:43:27;;;;;;;0.10;0.10;;;20.40;99.90;;;;;;4945672;28;20520;-73
2023/09/15 16:45:54;;;;;;;0.10;0.10;;;20.40;99.90;;;;;;4944010;29;21150;-72
2023/09/15 16:48:22;;;;;;;0.10;0.10;;;20.30;99.90;;;;;;4944428;29;20467;-73
2023/09/15 16:50:48;;;;;;;0.10;0.10;;;20.30;99.90;;;;;;4947110;28;20472;-73